Time;durP1;ratioP1;P1;durP2;ratioP2;P2;SDS_P1;SDS_P2;PMS_P1;PMS_P2;Temp;Humidity;BMP_temperature;BMP_pressure;BME280_temperature;BME280_humidity;BME280_pressure;Samples;Min_cycle;Max_cycle;Signal;HPM_P1;HPM_P2
2023/06/08 00:00:21;;;;;;;12.75;5.22;;;;;;;15.39;69.12;101697.88;5023123;28;20783;-74
2023/06/08 00:03:07;;;;;;;11.05;5.47;;;;;;;15.37;69.86;101692.59;5029618;28;20407;-74
2023/06/08 00:05:53;;;;;;;12.30;5.90;;;;;;;15.31;69.89;101689.31;5029572;28;20050;-74
2023/06/08 00:08:39;;;;;;;10.93;5.07;;;;;;;15.29;70.22;101692.03;5023956;28;20042;-74
2023/06/08 00:11:25;;;;;;;12.57;5.78;;;;;;;15.23;70.49;101694.91;5023743;28;20058;-73
2023/06/08 00:14:10;;;;;;;11.40;5.63;;;;;;;15.22;70.59;101695.84;5017121;28;20053;-73
2023/06/08 00:16:57;;;;;;;13.00;5.60;;;;;;;15.19;70.91;101683.53;5029711;28;20528;-73
2023/06/08 00:19:42;;;;;;;12.48;6.05;;;;;;;15.12;70.75;101687.31;5017279;28;20053;-74
2023/06/08 00:22:29;;;;;;;12.90;5.57;;;;;;;15.07;71.10;101686.63;5032089;28;20093;-74
2023/06/08 00:25:14;;;;;;;14.52;5.38;;;;;;;15.07;71.59;101692.78;5029469;28;20544;-74
2023/06/08 00:27:59;;;;;;;12.50;5.60;;;;;;;15.03;71.78;101693.84;5031042;28;20042;-73
2023/06/08 00:30:45;;;;;;;11.45;5.97;;;;;;;15.00;72.04;101688.63;5040843;28;20513;-73
2023/06/08 00:33:33;;;;;;;14.25;6.05;;;;;;;14.96;71.82;101688.78;5032104;28;20078;-72
2023/06/08 00:36:19;;;;;;;16.95;6.82;;;;;;;14.88;72.22;101681.97;4996016;28;20054;-73
2023/06/08 00:39:05;;;;;;;13.40;5.93;;;;;;;14.87;72.46;101687.31;5029242;28;20054;-72
2023/06/08 00:41:50;;;;;;;13.57;6.10;;;;;;;14.83;72.52;101683.91;5015357;28;20089;-73
2023/06/08 00:44:36;;;;;;;12.85;5.93;;;;;;;14.84;72.56;101679.47;5029761;28;20101;-73
2023/06/08 00:47:22;;;;;;;11.95;5.78;;;;;;;14.79;72.84;101682.31;5015139;28;20046;-74
2023/06/08 00:50:09;;;;;;;15.38;5.68;;;;;;;14.68;72.99;101674.69;5008208;28;20051;-74
2023/06/08 00:52:55;;;;;;;13.18;6.55;;;;;;;14.62;73.39;101671.34;5021155;28;20044;-74
2023/06/08 00:55:43;;;;;;;14.57;6.25;;;;;;;14.59;73.73;101665.25;5030762;28;20046;-74
2023/06/08 00:58:29;;;;;;;11.90;6.18;;;;;;;14.56;73.77;101670.66;5029600;28;20514;-74
2023/06/08 01:01:19;;;;;;;15.85;6.10;;;;;;;14.50;74.14;101667.31;5008707;28;20050;-74
2023/06/08 01:04:08;;;;;;;13.98;6.60;;;;;;;14.43;74.36;101670.19;5027138;28;20058;-74
2023/06/08 01:07:32;;;;;;;15.30;6.72;;;;;;;14.38;74.53;101671.28;5005895;28;20521;-74
2023/06/08 01:10:32;;;;;;;15.32;7.15;;;;;;;14.29;75.01;101670.63;5021035;28;20081;-74
2023/06/08 01:14:13;;;;;;;13.57;6.85;;;;;;;14.27;75.28;101669.84;5020046;28;20046;-73
2023/06/08 01:17:03;;;;;;;14.27;7.38;;;;;;;14.20;75.58;101670.06;5003567;28;20053;-74
2023/06/08 01:20:48;;;;;;;14.88;7.25;;;;;;;14.19;75.85;101676.28;5011750;28;20050;-74
2023/06/08 01:24:02;;;;;;;12.57;6.40;;;;;;;14.19;75.48;101666.56;5030771;28;20046;-74
2023/06/08 01:26:53;;;;;;;15.57;7.05;;;;;;;14.18;76.06;101666.59;5007234;28;20097;-74
2023/06/08 01:29:41;;;;;;;16.17;6.95;;;;;;;14.13;76.14;101661.44;5021635;28;20096;-74
2023/06/08 01:32:27;;;;;;;17.73;6.97;;;;;;;14.06;76.32;101658.13;5037953;28;20057;-75
2023/06/08 01:35:12;;;;;;;15.43;7.00;;;;;;;13.97;76.62;101666.38;5021742;28;20042;-74
2023/06/08 01:38:14;;;;;;;17.27;7.40;;;;;;;13.89;76.88;101669.25;5029593;28;20042;-74
2023/06/08 01:41:11;;;;;;;13.18;6.93;;;;;;;13.87;77.25;101671.09;5029468;28;20144;-74
2023/06/08 01:43:59;;;;;;;18.25;8.40;;;;;;;13.83;77.51;101669.44;5000891;28;20050;-75
2023/06/08 01:46:54;;;;;;;14.60;7.60;;;;;;;13.78;77.58;101663.44;5002894;28;20042;-74
2023/06/08 01:49:40;;;;;;;15.00;7.25;;;;;;;13.74;77.83;101669.75;5016465;28;20053;-74
2023/06/08 01:52:27;;;;;;;15.00;7.35;;;;;;;13.75;78.05;101671.47;5030170;28;20873;-73
2023/06/08 01:55:17;;;;;;;15.80;7.35;;;;;;;13.78;77.74;101668.75;5028758;28;20041;-74
2023/06/08 01:58:03;;;;;;;14.02;7.43;;;;;;;13.70;78.18;101671.63;5030362;28;20042;-74
2023/06/08 02:00:48;;;;;;;17.40;7.45;;;;;;;13.64;78.17;101667.38;5013121;28;20046;-74
2023/06/08 02:03:34;;;;;;;15.57;7.50;;;;;;;13.62;78.79;101661.25;5027879;28;20045;-74
2023/06/08 02:06:19;;;;;;;17.35;7.50;;;;;;;13.61;78.81;101670.09;5009915;28;20050;-74
2023/06/08 02:09:05;;;;;;;13.77;7.85;;;;;;;13.53;78.76;101658.88;5011892;28;20602;-76
2023/06/08 02:12:11;;;;;;;18.58;8.02;;;;;;;13.47;78.95;101667.00;5030313;28;20056;-76
2023/06/08 02:14:57;;;;;;;16.75;8.38;;;;;;;13.42;79.08;101658.31;5001253;28;20058;-76
2023/06/08 02:17:42;;;;;;;17.98;7.65;;;;;;;13.42;79.41;101659.19;5021454;28;20121;-73
2023/06/08 02:20:30;;;;;;;17.77;8.05;;;;;;;13.32;80.10;101652.41;5011459;28;20082;-73
2023/06/08 02:23:16;;;;;;;18.00;8.77;;;;;;;13.28;79.95;101646.28;5014556;28;20544;-73
2023/06/08 02:26:01;;;;;;;16.98;8.00;;;;;;;13.24;80.24;101646.44;5019986;28;20053;-72
2023/06/08 02:28:46;;;;;;;20.48;8.73;;;;;;;13.15;80.59;101648.44;5028096;28;20042;-72
2023/06/08 02:31:32;;;;;;;15.65;8.68;;;;;;;13.13;80.65;101639.66;5049350;28;20037;-73
2023/06/08 02:34:17;;;;;;;17.98;8.68;;;;;;;13.14;80.83;101646.69;5032876;28;20046;-74
2023/06/08 02:37:04;;;;;;;16.95;8.75;;;;;;;13.16;81.08;101641.38;5014919;28;20042;-74
2023/06/08 02:39:50;;;;;;;21.80;9.15;;;;;;;13.13;81.22;101638.81;5003376;28;20454;-74
2023/06/08 02:42:36;;;;;;;19.98;8.85;;;;;;;13.13;81.45;101649.41;5028535;28;20050;-74
2023/06/08 02:45:22;;;;;;;17.52;8.90;;;;;;;13.12;81.25;101648.53;5013780;28;20050;-73
2023/06/08 02:48:08;;;;;;;16.67;8.50;;;;;;;13.15;81.05;101644.94;5019548;28;20058;-73
2023/06/08 02:50:53;;;;;;;18.23;8.55;;;;;;;13.14;81.33;101643.19;5029366;28;20041;-75
2023/06/08 02:53:40;;;;;;;15.07;8.23;;;;;;;13.18;81.10;101642.19;5013782;28;20489;-75
2023/06/08 02:56:26;;;;;;;13.02;7.82;;;;;;;13.21;81.00;101639.44;5022463;28;20097;-77
2023/06/08 02:59:11;;;;;;;15.70;8.70;;;;;;;13.19;80.66;101633.31;5014162;28;20518;-76
2023/06/08 03:01:57;;;;;;;14.88;8.57;;;;;;;13.18;80.86;101636.88;5014529;28;20042;-76
2023/06/08 03:04:47;;;;;;;18.60;8.68;;;;;;;13.12;80.76;101642.38;5027425;28;20049;-76
2023/06/08 03:07:36;;;;;;;16.88;8.63;;;;;;;13.07;81.02;101639.84;5008410;28;20513;-76
2023/06/08 03:10:23;;;;;;;19.55;9.43;;;;;;;13.08;81.40;101644.22;5012824;28;20057;-75
2023/06/08 03:13:08;;;;;;;16.42;8.50;;;;;;;13.05;81.05;101628.44;5014429;28;20506;-75
2023/06/08 03:15:55;;;;;;;16.55;8.55;;;;;;;13.10;80.94;101636.22;5000805;28;20053;-76
2023/06/08 03:18:42;;;;;;;17.23;9.07;;;;;;;13.05;81.04;101636.38;4997695;28;20093;-76
2023/06/08 03:21:28;;;;;;;14.68;8.60;;;;;;;12.98;81.29;101634.81;5027423;28;20492;-74
2023/06/08 03:24:15;;;;;;;23.90;9.48;;;;;;;13.00;81.76;101625.06;5013092;28;20061;-73
2023/06/08 03:27:02;;;;;;;19.08;9.48;;;;;;;12.96;81.50;101639.28;4993939;28;20097;-73
2023/06/08 03:29:48;;;;;;;16.95;8.63;;;;;;;12.95;81.33;101638.41;5024043;28;20050;-74
2023/06/08 03:32:33;;;;;;;17.75;9.13;;;;;;;12.97;81.50;101641.88;5027746;28;20049;-74
2023/06/08 03:35:19;;;;;;;18.98;9.55;;;;;;;13.01;81.49;101638.22;5012558;28;20478;-75
2023/06/08 03:38:11;;;;;;;16.35;8.88;;;;;;;12.99;81.66;101641.84;5026199;28;20056;-72
2023/06/08 03:40:57;;;;;;;16.48;9.40;;;;;;;13.04;81.40;101631.97;5007422;28;20062;-72
2023/06/08 03:43:43;;;;;;;19.27;9.43;;;;;;;13.02;81.60;101632.03;5010159;28;20050;-73
2023/06/08 03:46:28;;;;;;;18.40;9.20;;;;;;;13.04;81.39;101624.94;5001117;28;20620;-74
2023/06/08 03:49:15;;;;;;;21.92;9.27;;;;;;;13.08;81.31;101632.75;5011969;28;20499;-74
2023/06/08 03:52:01;;;;;;;18.55;9.55;;;;;;;13.09;80.72;101621.25;5013016;28;20042;-74
2023/06/08 03:54:46;;;;;;;15.70;9.23;;;;;;;13.14;80.79;101627.31;5013261;28;20050;-74
2023/06/08 03:57:35;;;;;;;17.27;9.50;;;;;;;13.22;81.15;101629.75;5013031;28;20125;-74
2023/06/08 04:00:21;;;;;;;18.25;9.90;;;;;;;13.27;81.09;101625.16;5026710;28;20522;-73
2023/06/08 04:03:10;;;;;;;15.52;9.32;;;;;;;13.18;81.87;101631.59;5026782;28;20089;-74
2023/06/08 04:05:56;;;;;;;19.30;9.65;;;;;;;13.11;82.66;101622.97;5011398;28;20046;-75
2023/06/08 04:08:44;;;;;;;16.85;8.93;;;;;;;13.13;82.42;101622.91;5028350;28;20049;-74
2023/06/08 04:11:29;;;;;;;18.17;9.88;;;;;;;13.03;82.71;101625.84;5007972;28;20046;-75
2023/06/08 04:14:14;;;;;;;19.23;9.57;;;;;;;13.03;83.13;101622.31;5013920;28;20054;-76
2023/06/08 04:17:00;;;;;;;21.30;10.45;;;;;;;13.02;82.88;101620.59;5013614;28;20117;-75
2023/06/08 04:19:47;;;;;;;16.88;10.27;;;;;;;12.97;83.01;101630.44;5004866;28;20125;-75
2023/06/08 04:22:32;;;;;;;18.90;9.75;;;;;;;12.95;83.20;101622.53;5010816;28;20481;-75
2023/06/08 04:25:19;;;;;;;16.30;9.52;;;;;;;13.03;83.33;101620.53;4999144;28;20050;-76
2023/06/08 04:28:04;;;;;;;21.90;10.32;;;;;;;13.05;82.74;101617.84;5026424;28;20049;-77
2023/06/08 04:30:50;;;;;;;18.25;10.00;;;;;;;13.07;82.59;101621.31;5011738;28;20054;-74
2023/06/08 04:33:35;;;;;;;20.33;11.02;;;;;;;13.14;82.70;101619.38;5023502;28;20058;-73
2023/06/08 04:36:23;;;;;;;19.95;9.95;;;;;;;13.21;82.55;101618.28;5000765;28;20589;-72
2023/06/08 04:39:12;;;;;;;18.02;10.02;;;;;;;13.31;81.66;101619.75;5023720;28;20552;-71
2023/06/08 04:42:05;;;;;;;19.48;10.02;;;;;;;13.33;81.65;101624.97;5031254;28;20046;-70
2023/06/08 04:44:50;;;;;;;19.50;10.25;;;;;;;13.40;81.24;101623.94;5010914;28;20497;-71
2023/06/08 04:47:36;;;;;;;22.33;10.77;;;;;;;13.60;80.52;101630.41;5035526;28;20129;-72
2023/06/08 04:50:22;;;;;;;19.35;10.77;;;;;;;13.58;80.28;101622.50;5038292;28;20048;-71
2023/06/08 04:53:10;;;;;;;22.13;10.27;;;;;;;13.56;80.65;101627.00;5016299;28;20042;-72
2023/06/08 04:56:02;;;;;;;18.27;9.85;;;;;;;13.65;80.91;101617.88;5019382;28;20049;-72
2023/06/08 04:58:48;;;;;;;18.83;10.48;;;;;;;13.78;79.70;101621.91;5037211;28;20049;-71
2023/06/08 05:01:34;;;;;;;19.10;10.35;;;;;;;13.86;79.46;101624.31;5015009;28;20061;-71
2023/06/08 05:04:20;;;;;;;17.02;10.18;;;;;;;13.89;79.21;101626.00;5023220;28;20049;-72
2023/06/08 05:07:09;;;;;;;21.67;11.25;;;;;;;13.90;79.06;101631.22;5029857;28;20133;-72
2023/06/08 05:09:56;;;;;;;16.27;10.00;;;;;;;13.97;79.01;101627.50;5032571;28;20049;-71
2023/06/08 05:12:42;;;;;;;21.90;10.55;;;;;;;14.07;77.97;101621.88;5020957;28;20838;-72
2023/06/08 05:15:30;;;;;;;18.10;10.07;;;;;;;14.20;77.87;101631.16;5013069;28;20511;-72
2023/06/08 05:18:16;;;;;;;21.55;9.85;;;;;;;14.79;76.67;101623.03;5028114;28;20038;-72
2023/06/08 05:21:01;;;;;;;16.85;9.85;;;;;;;15.60;73.20;101619.13;5028093;28;20573;-72
2023/06/08 05:23:47;;;;;;;18.15;10.20;;;;;;;15.25;73.33;101624.00;5010897;28;20054;-72
2023/06/08 05:26:32;;;;;;;19.20;10.05;;;;;;;15.29;72.51;101633.59;5010688;28;20093;-72
2023/06/08 05:29:18;;;;;;;16.63;9.50;;;;;;;15.60;71.00;101626.25;5016875;28;20089;-72
2023/06/08 05:32:06;;;;;;;16.20;9.85;;;;;;;15.32;71.99;101624.63;5011638;28;20056;-72
2023/06/08 05:34:51;;;;;;;21.13;10.35;;;;;;;15.20;72.67;101621.53;5014290;28;20057;-72
2023/06/08 05:37:36;;;;;;;18.05;10.07;;;;;;;15.65;70.82;101629.56;4999570;28;20042;-73
2023/06/08 05:40:24;;;;;;;20.33;9.82;;;;;;;16.22;69.25;101626.47;5025757;28;20209;-72
2023/06/08 05:43:09;;;;;;;15.70;9.68;;;;;;;16.15;69.21;101625.84;5026167;28;20046;-72
2023/06/08 05:45:54;;;;;;;17.15;9.77;;;;;;;17.17;66.88;101624.13;5013864;28;20049;-72
2023/06/08 05:48:40;;;;;;;18.33;9.75;;;;;;;16.88;66.91;101614.75;5027085;28;20042;-72
2023/06/08 05:51:25;;;;;;;19.17;10.48;;;;;;;16.64;67.29;101614.91;5036679;28;20045;-72
2023/06/08 05:54:10;;;;;;;20.02;10.18;;;;;;;17.56;65.16;101619.66;5015002;28;20080;-72
2023/06/08 05:56:56;;;;;;;16.67;8.95;;;;;;;19.37;60.27;101609.66;5014224;28;20161;-72
2023/06/08 05:59:42;;;;;;;19.40;9.60;;;;;;;21.23;55.94;101606.81;5036308;28;20057;-72
2023/06/08 06:02:27;;;;;;;15.90;8.25;;;;;;;20.84;55.49;101601.19;5028599;28;20058;-72
2023/06/08 06:05:13;;;;;;;17.27;7.95;;;;;;;21.58;52.79;101606.38;5028915;28;20050;-72
2023/06/08 06:07:58;;;;;;;16.33;8.40;;;;;;;22.79;49.52;101601.03;5015598;28;20057;-73
2023/06/08 06:10:43;;;;;;;15.43;7.68;;;;;;;23.54;46.72;101604.69;5027658;28;20785;-73
2023/06/08 06:13:31;;;;;;;16.63;8.40;;;;;;;23.62;45.75;101602.28;5015169;28;20136;-72
2023/06/08 06:16:17;;;;;;;14.60;7.80;;;;;;;23.33;45.48;101607.97;5029000;28;20046;-72
2023/06/08 06:19:02;;;;;;;15.25;7.70;;;;;;;21.80;47.94;101615.75;5030731;28;20053;-73
2023/06/08 06:21:47;;;;;;;14.82;8.00;;;;;;;19.75;53.53;101617.34;5030675;28;20049;-73
2023/06/08 06:24:33;;;;;;;17.08;7.78;;;;;;;18.62;57.52;101615.38;5030059;28;20050;-72
2023/06/08 06:27:19;;;;;;;18.52;8.65;;;;;;;17.94;59.69;101618.75;5030321;28;20489;-72
2023/06/08 06:30:06;;;;;;;16.38;9.02;;;;;;;17.44;61.80;101625.59;5023225;28;20127;-72
2023/06/08 06:32:51;;;;;;;17.77;9.48;;;;;;;17.12;63.00;101623.47;5013867;28;20105;-72
2023/06/08 06:35:37;;;;;;;16.38;9.13;;;;;;;16.98;63.85;101629.44;5030308;28;20046;-72
2023/06/08 06:38:24;;;;;;;16.63;9.63;;;;;;;16.91;64.91;101626.13;5030126;28;20058;-72
2023/06/08 06:41:09;;;;;;;14.80;9.02;;;;;;;16.87;65.50;101624.56;5015103;28;20085;-72
2023/06/08 06:43:54;;;;;;;19.88;9.52;;;;;;;16.89;65.71;101614.69;5029566;28;20050;-72
2023/06/08 06:46:40;;;;;;;16.85;9.10;;;;;;;16.99;65.54;101628.50;5029879;28;20082;-73
2023/06/08 06:49:26;;;;;;;14.27;9.00;;;;;;;17.03;64.90;101623.88;5030163;28;20483;-72
2023/06/08 06:52:11;;;;;;;14.80;9.13;;;;;;;17.01;65.68;101629.28;5030413;28;20288;-72
2023/06/08 06:54:58;;;;;;;16.50;9.45;;;;;;;17.17;65.09;101631.25;5030643;28;20049;-72
2023/06/08 06:57:44;;;;;;;16.20;9.52;;;;;;;17.17;65.07;101634.81;5028116;28;20058;-72
2023/06/08 07:00:32;;;;;;;17.02;9.55;;;;;;;17.20;64.86;101636.44;5028302;28;20050;-72
2023/06/08 07:03:17;;;;;;;15.73;9.50;;;;;;;17.20;65.23;101639.97;5025660;28;20427;-72
2023/06/08 07:06:02;;;;;;;17.27;9.60;;;;;;;17.16;65.28;101638.41;5030088;28;20042;-72
2023/06/08 07:08:47;;;;;;;15.18;8.70;;;;;;;17.13;65.27;101635.84;5029967;28;20050;-73
2023/06/08 07:11:33;;;;;;;15.90;8.50;;;;;;;17.04;65.16;101630.94;5028809;28;20046;-72
2023/06/08 07:14:19;;;;;;;20.70;9.10;;;;;;;16.99;65.83;101631.16;5029969;28;20054;-71
2023/06/08 07:17:04;;;;;;;17.45;8.68;;;;;;;17.10;65.07;101643.13;5014896;28;20046;-72
2023/06/08 07:19:51;;;;;;;13.85;8.85;;;;;;;17.33;64.36;101642.06;5014591;28;20092;-72
2023/06/08 07:22:37;;;;;;;14.38;9.05;;;;;;;17.50;63.58;101635.97;5014818;28;20050;-72
2023/06/08 07:25:43;;;;;;;16.42;8.68;;;;;;;17.58;63.64;101633.78;4994198;28;20763;-73
2023/06/08 07:28:53;;;;;;;29.42;12.23;;;;;;;17.65;63.89;101629.88;5009241;28;20046;-73
2023/06/08 07:31:39;;;;;;;20.42;10.95;;;;;;;17.81;63.96;101631.84;5011434;28;20050;-73
2023/06/08 07:34:25;;;;;;;21.30;10.80;;;;;;;17.88;63.45;101627.06;5029835;28;20054;-72
2023/06/08 07:37:10;;;;;;;17.95;10.68;;;;;;;17.95;64.54;101618.72;5029796;28;20049;-73
2023/06/08 07:39:55;;;;;;;15.55;10.52;;;;;;;18.11;62.87;101615.31;5029248;28;20128;-73
2023/06/08 07:42:41;;;;;;;17.38;10.95;;;;;;;18.14;62.88;101620.50;5029489;28;20054;-72
2023/06/08 07:45:27;;;;;;;17.17;11.02;;;;;;;18.23;62.62;101619.16;5029180;28;20050;-73
2023/06/08 07:48:12;;;;;;;16.73;10.23;;;;;;;18.38;62.08;101620.16;5029975;28;20043;-73
2023/06/08 07:50:58;;;;;;;19.55;11.43;;;;;;;18.23;61.73;101622.69;5030164;28;20042;-73
2023/06/08 07:53:43;;;;;;;18.63;10.73;;;;;;;18.24;61.85;101619.09;5029127;28;20121;-73
2023/06/08 07:56:28;;;;;;;17.10;10.35;;;;;;;18.28;61.59;101625.97;5000258;28;20046;-72
2023/06/08 07:59:14;;;;;;;18.35;10.68;;;;;;;18.25;62.39;101619.94;5013686;28;20173;-72
2023/06/08 08:02:00;;;;;;;15.68;10.30;;;;;;;18.30;61.87;101624.09;5012794;28;20172;-72
2023/06/08 08:04:45;;;;;;;20.65;9.68;;;;;;;18.36;62.18;101627.41;5009830;28;20042;-72
2023/06/08 08:07:31;;;;;;;17.02;10.70;;;;;;;18.36;61.78;101625.59;5009372;28;20050;-72
2023/06/08 08:10:16;;;;;;;18.15;10.85;;;;;;;18.34;61.89;101622.13;5009134;28;20570;-72
2023/06/08 08:13:01;;;;;;;16.05;9.90;;;;;;;18.40;61.10;101623.63;5012182;28;20042;-72
2023/06/08 08:15:46;;;;;;;19.00;9.60;;;;;;;18.54;59.71;101617.59;5011400;28;20047;-72
2023/06/08 08:18:32;;;;;;;15.40;9.00;;;;;;;18.52;60.06;101619.50;5012803;28;20646;-72
2023/06/08 08:21:17;;;;;;;18.45;9.65;;;;;;;18.50;60.08;101613.38;5012699;28;20046;-73
2023/06/08 08:24:03;;;;;;;16.95;9.45;;;;;;;18.53;59.71;101618.53;5018773;28;20054;-72
2023/06/08 08:26:56;;;;;;;15.73;9.00;;;;;;;18.32;60.68;101621.34;5032418;28;20050;-73
2023/06/08 08:29:41;;;;;;;15.65;9.13;;;;;;;18.12;61.01;101617.88;5036618;28;20906;-72
2023/06/08 08:32:27;;;;;;;20.45;11.00;;;;;;;17.98;62.28;101625.72;5042446;28;20506;-72
2023/06/08 08:35:12;;;;;;;20.02;10.65;;;;;;;17.91;63.55;101630.44;5032228;28;20053;-73
2023/06/08 08:37:57;;;;;;;18.67;10.23;;;;;;;17.87;63.68;101630.69;5017465;28;20049;-72
2023/06/08 08:40:43;;;;;;;21.77;11.43;;;;;;;17.83;63.55;101633.47;5032198;28;20042;-72
2023/06/08 08:43:49;;;;;;;18.00;11.43;;;;;;;17.79;63.35;101639.94;5016590;28;20046;-72
2023/06/08 08:46:39;;;;;;;19.73;10.30;;;;;;;17.70;63.30;101633.22;5032016;28;20050;-73
2023/06/08 08:49:24;;;;;;;21.25;11.35;;;;;;;17.58;63.55;101636.47;5016965;28;20066;-72
2023/06/08 08:52:10;;;;;;;19.30;10.48;;;;;;;17.59;63.21;101640.00;5032034;28;20422;-73
2023/06/08 08:54:57;;;;;;;19.65;10.63;;;;;;;17.53;63.33;101638.50;5030455;28;20046;-73
2023/06/08 08:57:42;;;;;;;19.40;10.95;;;;;;;17.54;63.94;101637.56;5016565;28;20054;-72
2023/06/08 09:00:28;;;;;;;15.75;11.00;;;;;;;17.46;63.93;101637.03;5016368;28;20046;-72
2023/06/08 09:03:15;;;;;;;17.05;10.68;;;;;;;17.45;63.72;101628.19;5031285;28;20845;-73
2023/06/08 09:06:00;;;;;;;18.50;10.23;;;;;;;17.54;63.26;101632.22;5027131;28;20113;-72
2023/06/08 09:08:48;;;;;;;19.10;10.10;;;;;;;17.62;62.91;101619.41;5029973;28;20500;-73
2023/06/08 09:11:34;;;;;;;18.35;9.52;;;;;;;17.79;62.45;101625.72;5032198;28;20050;-72
2023/06/08 09:14:19;;;;;;;20.10;9.13;;;;;;;18.05;62.05;101618.28;5015694;28;20054;-72
2023/06/08 09:17:07;;;;;;;15.52;9.07;;;;;;;18.54;59.70;101621.13;5030955;28;20512;-73
2023/06/08 09:19:53;;;;;;;14.15;8.48;;;;;;;18.92;58.01;101618.25;5030000;28;20530;-73
2023/06/08 09:22:39;;;;;;;14.73;8.07;;;;;;;19.04;58.24;101619.41;5012385;28;20054;-73
2023/06/08 09:25:37;;;;;;;11.38;7.65;;;;;;;19.37;56.55;101607.00;5015111;28;20628;-72
2023/06/08 09:28:28;;;;;;;17.15;8.40;;;;;;;19.40;56.84;101605.00;5013242;28;20046;-73
2023/06/08 09:31:16;;;;;;;14.20;8.23;;;;;;;19.62;56.41;101597.59;5041583;28;20050;-72
2023/06/08 09:34:10;;;;;;;12.70;7.82;;;;;;;19.78;56.51;101598.44;4999969;28;20784;-72
2023/06/08 09:37:15;;;;;;;14.83;7.17;;;;;;;20.07;56.17;101609.31;4990691;28;20046;-73
2023/06/08 09:40:09;;;;;;;14.20;7.40;;;;;;;20.44;54.26;101598.25;4998339;28;20288;-73
2023/06/08 09:42:55;;;;;;;12.93;7.57;;;;;;;20.56;53.42;101596.63;5029483;28;20038;-73
2023/06/08 09:45:47;;;;;;;13.52;7.93;;;;;;;20.71;53.82;101589.47;5015137;28;20046;-73
2023/06/08 09:48:33;;;;;;;14.82;6.82;;;;;;;20.93;53.84;101592.56;5028200;28;20509;-73
2023/06/08 09:51:22;;;;;;;13.57;6.90;;;;;;;21.08;52.29;101587.19;5015351;28;20054;-73
2023/06/08 09:54:11;;;;;;;12.85;7.38;;;;;;;21.14;52.19;101580.59;5029594;28;20042;-73
2023/06/08 09:56:59;;;;;;;15.70;6.65;;;;;;;21.19;52.63;101584.69;5030542;28;20042;-73
2023/06/08 09:59:47;;;;;;;15.75;6.68;;;;;;;21.33;51.91;101580.28;5027588;28;20042;-73
2023/06/08 10:02:47;;;;;;;10.70;7.38;;;;;;;21.45;52.00;101578.63;5026539;28;20510;-73
2023/06/08 10:05:36;;;;;;;11.68;6.63;;;;;;;21.59;51.46;101572.38;5029484;28;20621;-74
2023/06/08 10:08:25;;;;;;;10.68;6.07;;;;;;;21.68;51.84;101571.78;5031048;28;20057;-74
2023/06/08 10:11:13;;;;;;;14.68;7.05;;;;;;;21.86;50.97;101573.25;5015492;28;20042;-73
2023/06/08 10:13:59;;;;;;;11.75;6.72;;;;;;;21.95;50.84;101569.09;5026660;28;20050;-73
2023/06/08 10:16:46;;;;;;;13.82;6.97;;;;;;;22.08;50.86;101562.91;5020756;28;20086;-73
2023/06/08 10:19:35;;;;;;;12.07;6.85;;;;;;;22.26;50.57;101560.78;5015508;28;20045;-74
2023/06/08 10:22:23;;;;;;;10.98;7.00;;;;;;;22.34;50.07;101558.44;5026708;28;20075;-73
2023/06/08 10:25:13;;;;;;;11.93;7.07;;;;;;;22.34;50.35;101561.13;5014413;28;20062;-73
2023/06/08 10:28:08;;;;;;;14.48;7.57;;;;;;;22.48;49.56;101555.69;5015824;28;20096;-74
2023/06/08 10:30:53;;;;;;;11.00;6.47;;;;;;;22.46;49.88;101556.75;5041908;28;20465;-73
2023/06/08 10:33:40;;;;;;;12.05;6.53;;;;;;;22.62;49.12;101560.09;5030515;28;20046;-73
2023/06/08 10:36:39;;;;;;;13.32;7.03;;;;;;;22.62;49.51;101554.72;5019429;28;20046;-74
2023/06/08 10:39:24;;;;;;;9.98;7.00;;;;;;;22.75;49.17;101551.13;5025684;28;20145;-73
2023/06/08 10:42:20;;;;;;;11.15;6.97;;;;;;;22.60;49.04;101545.03;5025804;28;20168;-74
2023/06/08 10:45:06;;;;;;;11.50;6.97;;;;;;;22.36;49.20;101543.06;4998678;28;20049;-73
2023/06/08 10:48:15;;;;;;;13.57;7.78;;;;;;;22.13;50.22;101537.47;5015178;28;20050;-73
2023/06/08 10:51:03;;;;;;;17.25;6.93;;;;;;;22.09;51.07;101535.94;5010564;28;20050;-74
2023/06/08 10:53:57;;;;;;;13.05;7.43;;;;;;;22.57;50.51;101531.81;5014268;28;20133;-74
2023/06/08 10:56:42;;;;;;;10.73;6.95;;;;;;;22.93;49.75;101530.16;5023246;28;20102;-73
2023/06/08 10:59:37;;;;;;;14.02;6.68;;;;;;;23.26;49.26;101524.19;5020538;28;20088;-73
2023/06/08 11:02:24;;;;;;;13.75;7.00;;;;;;;23.45;48.11;101525.53;5029637;28;20046;-73
2023/06/08 11:05:09;;;;;;;14.50;7.10;;;;;;;23.49;47.82;101521.63;5029596;28;20050;-73
2023/06/08 11:07:56;;;;;;;11.27;7.30;;;;;;;23.47;48.35;101522.72;5027571;28;20046;-73
2023/06/08 11:10:42;;;;;;;10.98;7.18;;;;;;;23.46;48.18;101518.31;5023927;28;20050;-73
2023/06/08 11:13:28;;;;;;;8.15;6.53;;;;;;;23.49;48.17;101512.72;5029590;28;20070;-74
2023/06/08 11:16:19;;;;;;;14.20;7.07;;;;;;;23.58;48.01;101510.16;5028083;28;20057;-73
2023/06/08 11:19:09;;;;;;;10.98;6.85;;;;;;;23.85;47.86;101505.50;5027999;28;20046;-74
2023/06/08 11:21:54;;;;;;;12.23;5.53;;;;;;;24.17;47.05;101503.03;5029399;28;20058;-74
2023/06/08 11:24:43;;;;;;;10.48;5.40;;;;;;;24.40;46.78;101492.31;5030052;28;20053;-74
2023/06/08 11:27:28;;;;;;;8.05;5.13;;;;;;;24.74;45.25;101500.44;5028898;28;20050;-73
2023/06/08 11:30:17;;;;;;;9.10;6.20;;;;;;;24.80;45.57;101489.16;5038320;28;20477;-74
2023/06/08 11:33:09;;;;;;;12.55;6.13;;;;;;;24.93;45.13;101485.47;5041156;28;20092;-74
2023/06/08 11:35:55;;;;;;;9.70;5.57;;;;;;;25.08;45.25;101475.25;5028562;28;20138;-74
2023/06/08 11:38:40;;;;;;;8.52;4.78;;;;;;;25.26;44.13;101484.53;5026891;28;20045;-74
2023/06/08 11:41:26;;;;;;;11.20;5.15;;;;;;;25.40;44.51;101483.41;4995094;28;20038;-74
2023/06/08 11:44:14;;;;;;;11.85;5.40;;;;;;;25.57;43.65;101476.59;5009964;28;20047;-74
2023/06/08 11:47:00;;;;;;;11.25;5.30;;;;;;;25.63;43.66;101475.22;5031723;28;20058;-74
2023/06/08 11:49:58;;;;;;;8.48;4.78;;;;;;;25.82;42.59;101485.31;5016225;28;20129;-74
2023/06/08 11:52:46;;;;;;;7.32;4.70;;;;;;;25.73;42.11;101468.03;5017587;28;20042;-74
2023/06/08 11:55:31;;;;;;;8.20;5.20;;;;;;;25.74;42.35;101463.53;5032364;28;20058;-74
2023/06/08 11:58:22;;;;;;;9.35;4.70;;;;;;;25.83;42.17;101470.84;5031436;28;20112;-73
2023/06/08 12:01:11;;;;;;;9.48;5.00;;;;;;;25.95;42.43;101465.34;5031872;28;20042;-74
2023/06/08 12:03:57;;;;;;;9.10;4.72;;;;;;;26.09;41.78;101461.47;5032878;28;20486;-74
2023/06/08 12:06:42;;;;;;;8.85;5.10;;;;;;;26.17;41.34;101453.56;5011365;28;20517;-74
2023/06/08 12:09:27;;;;;;;10.27;5.32;;;;;;;26.15;41.34;101453.69;5013056;28;20038;-73
2023/06/08 12:12:13;;;;;;;9.15;4.65;;;;;;;26.19;41.39;101454.31;5014368;28;20747;-74
2023/06/08 12:14:58;;;;;;;6.93;4.60;;;;;;;26.24;40.91;101452.03;5027493;28;20327;-75
2023/06/08 12:17:44;;;;;;;9.60;5.28;;;;;;;26.16;41.73;101446.47;5008159;28;20643;-74
2023/06/08 12:20:33;;;;;;;7.35;4.60;;;;;;;26.21;41.41;101446.91;5027644;28;20042;-74
2023/06/08 12:23:20;;;;;;;8.95;4.72;;;;;;;26.41;40.73;101446.97;5008359;28;20510;-74
2023/06/08 12:26:09;;;;;;;6.78;4.93;;;;;;;26.32;40.22;101446.81;5032902;28;20108;-74
2023/06/08 12:28:54;;;;;;;8.25;4.63;;;;;;;26.28;41.09;101433.72;5050859;28;20054;-74
2023/06/08 12:31:40;;;;;;;8.07;4.68;;;;;;;26.47;41.42;101430.25;5028167;28;20050;-74
2023/06/08 12:34:30;;;;;;;7.15;4.78;;;;;;;26.70;40.14;101430.88;5039661;28;20045;-74
2023/06/08 12:37:16;;;;;;;6.22;4.00;;;;;;;26.78;39.47;101432.94;5032730;28;20517;-74
2023/06/08 12:40:01;;;;;;;6.10;4.28;;;;;;;26.62;39.47;101420.75;5038413;28;20046;-74
2023/06/08 12:42:50;;;;;;;7.97;4.20;;;;;;;26.61;39.91;101432.56;5015334;28;20082;-74
2023/06/08 12:45:36;;;;;;;8.40;5.10;;;;;;;26.72;39.96;101417.22;5012394;28;20780;-74
2023/06/08 12:48:22;;;;;;;8.65;5.00;;;;;;;26.80;39.33;101422.84;5015693;28;20049;-74
2023/06/08 12:51:07;;;;;;;7.68;4.78;;;;;;;26.63;39.66;101414.34;5030354;28;20132;-74